Time;durP1;ratioP1;P1;durP2;ratioP2;P2;SDS_P1;SDS_P2;PMS_P1;PMS_P2;Temp;Humidity;BMP_temperature;BMP_pressure;BME280_temperature;BME280_humidity;BME280_pressure;Samples;Min_cycle;Max_cycle;Signal;HPM_P1;HPM_P2
2023/03/09 00:02:17;;;;;;;6.68;5.47;;;;;;;8.91;54.01;97202.69;5108934;28;20351;-73
2023/03/09 00:04:43;;;;;;;7.60;5.82;;;;;;;8.74;54.10;97182.13;5108505;28;20288;-73
2023/03/09 00:07:10;;;;;;;7.43;5.57;;;;;;;8.74;54.27;97176.00;5108396;28;20048;-74
2023/03/09 00:09:37;;;;;;;7.72;4.63;;;;;;;8.97;54.31;97204.84;5107779;28;20123;-73
2023/03/09 00:12:04;;;;;;;6.63;5.20;;;;;;;8.99;54.49;97207.34;5108254;28;20046;-74
2023/03/09 00:14:31;;;;;;;6.43;5.20;;;;;;;8.99;54.38;97197.63;5107501;28;20031;-73
2023/03/09 00:17:01;;;;;;;7.13;5.22;;;;;;;9.03;54.60;97203.50;5108107;28;20052;-75
2023/03/09 00:19:30;;;;;;;6.70;5.13;;;;;;;8.31;54.61;97066.84;5108672;28;20036;-75
2023/03/09 00:21:58;;;;;;;7.18;4.55;;;;;;;9.06;54.99;97182.09;5107619;28;20036;-75
2023/03/09 00:24:28;;;;;;;7.82;5.53;;;;;;;9.06;54.89;97168.88;5108470;28;20054;-75
2023/03/09 00:26:56;;;;;;;5.72;4.47;;;;;;;9.08;55.03;97168.75;5107348;28;20067;-75
2023/03/09 00:29:24;;;;;;;8.30;5.63;;;;;;;9.08;55.14;97174.03;5107348;28;20292;-74
2023/03/09 00:31:51;;;;;;;8.88;5.35;;;;;;;9.05;55.51;97164.56;5108039;28;20115;-74
2023/03/09 00:34:20;;;;;;;6.95;5.25;;;;;;;9.05;55.40;97159.28;5108344;28;20195;-73
2023/03/09 00:36:47;;;;;;;8.80;5.53;;;;;;;9.06;55.24;97158.31;5107925;28;20314;-73
2023/03/09 00:39:16;;;;;;;7.35;5.15;;;;;;;9.07;55.24;97145.94;5107150;28;20047;-73
2023/03/09 00:41:43;;;;;;;7.70;5.70;;;;;;;8.86;55.21;97116.88;5106981;28;20078;-72
2023/03/09 00:44:12;;;;;;;6.07;4.90;;;;;;;8.90;55.33;97120.94;5106924;28;20200;-72
2023/03/09 00:46:39;;;;;;;7.03;5.70;;;;;;;9.07;55.35;97130.94;5107667;28;20044;-73
2023/03/09 00:49:07;;;;;;;7.57;5.75;;;;;;;7.45;55.84;96866.50;5107023;28;20051;-72
2023/03/09 00:51:36;;;;;;;6.75;5.22;;;;;;;9.04;56.44;97088.91;5107450;28;20099;-73
2023/03/09 00:54:03;;;;;;;6.30;5.03;;;;;;;8.47;56.05;97000.44;5107757;28;20187;-74
2023/03/09 00:56:30;;;;;;;7.30;5.38;;;;;;;9.05;55.69;97069.44;5106559;28;20232;-74
2023/03/09 00:58:58;;;;;;;6.78;5.00;;;;;;;9.04;55.73;97064.28;5107027;28;20131;-73
2023/03/09 01:01:26;;;;;;;6.10;4.82;;;;;;;8.26;55.67;96938.88;5107393;28;20056;-73
2023/03/09 01:03:53;;;;;;;6.25;5.22;;;;;;;9.03;55.67;97062.63;5107554;28;20038;-74
2023/03/09 01:06:20;;;;;;;6.75;5.63;;;;;;;9.02;55.59;97055.66;5106436;28;20036;-73
2023/03/09 01:08:49;;;;;;;7.85;5.20;;;;;;;9.00;55.39;97045.22;5106173;28;20046;-73
2023/03/09 01:11:17;;;;;;;8.45;5.60;;;;;;;8.10;55.33;96907.66;5107544;28;20042;-73
2023/03/09 01:13:44;;;;;;;8.60;7.13;;;;;;;8.23;55.39;96939.97;5107425;28;20284;-72
2023/03/09 01:16:11;;;;;;;7.68;5.70;;;;;;;8.70;55.01;97002.94;5107386;28;20314;-73
2023/03/09 01:18:38;;;;;;;7.47;5.57;;;;;;;8.65;54.84;96996.22;5107039;28;20185;-73
2023/03/09 01:21:06;;;;;;;7.78;5.93;;;;;;;8.83;54.64;97043.19;5107048;28;20047;-73
2023/03/09 01:23:33;;;;;;;9.55;7.07;;;;;;;8.80;54.50;97041.63;5107366;28;20060;-73
2023/03/09 01:26:02;;;;;;;9.27;7.10;;;;;;;8.77;54.42;97038.41;5107212;28;20050;-73
2023/03/09 01:28:28;;;;;;;9.13;6.25;;;;;;;8.75;54.27;97051.75;5106890;28;20047;-73
2023/03/09 01:30:55;;;;;;;9.10;6.15;;;;;;;8.70;54.13;97045.19;5106052;28;20259;-73
2023/03/09 01:33:22;;;;;;;9.82;6.55;;;;;;;8.67;54.03;97043.63;5107018;28;20288;-73
2023/03/09 01:35:49;;;;;;;9.63;6.95;;;;;;;8.64;53.61;97046.53;5107189;28;20050;-74
2023/03/09 01:38:16;;;;;;;7.25;5.75;;;;;;;8.61;53.61;97037.06;5106729;28;20047;-73
2023/03/09 01:40:46;;;;;;;7.68;6.15;;;;;;;8.47;52.94;97024.19;5106929;28;20044;-73
2023/03/09 01:43:29;;;;;;;8.73;5.97;;;;;;;8.51;52.64;97037.97;5106585;28;20300;-73
2023/03/09 01:46:38;;;;;;;6.20;5.60;;;;;;;8.46;52.18;97027.78;5106831;28;20107;-73
2023/03/09 01:49:11;;;;;;;8.02;6.25;;;;;;;8.39;52.38;97031.91;5106569;28;20203;-74
2023/03/09 01:51:43;;;;;;;8.13;5.70;;;;;;;8.38;52.26;97029.38;5106398;28;20060;-74
2023/03/09 01:54:15;;;;;;;6.82;5.20;;;;;;;8.37;52.25;97018.00;5105396;28;20043;-74
2023/03/09 01:56:44;;;;;;;8.88;6.32;;;;;;;8.35;52.11;97022.56;5105520;28;20040;-73
2023/03/09 01:59:13;;;;;;;9.60;5.82;;;;;;;8.11;51.81;96992.94;5105503;28;20035;-73
2023/03/09 02:01:42;;;;;;;8.02;5.50;;;;;;;8.31;51.80;97011.41;5106340;28;20039;-73
2023/03/09 02:04:14;;;;;;;7.25;5.05;;;;;;;8.30;51.89;97024.75;5106320;28;20058;-74
2023/03/09 02:06:42;;;;;;;9.23;6.18;;;;;;;8.11;51.98;97001.69;5106722;28;20047;-72
2023/03/09 02:09:16;;;;;;;7.47;5.88;;;;;;;8.26;51.80;97033.88;5105537;28;20036;-73
2023/03/09 02:11:44;;;;;;;8.73;5.55;;;;;;;8.27;51.89;97028.47;5105971;28;20107;-73
2023/03/09 02:14:14;;;;;;;7.05;5.40;;;;;;;7.98;51.87;96988.66;5105205;28;20059;-73
2023/03/09 02:16:40;;;;;;;7.82;5.55;;;;;;;7.07;51.68;96830.91;5105202;28;20165;-73
2023/03/09 02:19:16;;;;;;;8.15;5.05;;;;;;;7.76;51.02;96943.06;5105517;28;20067;-73
2023/03/09 02:21:48;;;;;;;8.60;6.00;;;;;;;8.32;51.67;97043.94;5104998;28;20066;-73
2023/03/09 02:24:19;;;;;;;8.65;5.47;;;;;;;8.16;51.65;97007.41;5106435;28;20208;-73
2023/03/09 02:26:51;;;;;;;7.75;5.40;;;;;;;8.32;51.57;97030.72;5071753;28;20081;-73
2023/03/09 02:29:20;;;;;;;8.15;6.45;;;;;;;8.13;51.84;97012.09;5105155;28;20035;-74
2023/03/09 02:31:47;;;;;;;10.60;5.95;;;;;;;8.33;51.64;97035.03;5105720;28;20203;-74
2023/03/09 02:34:15;;;;;;;6.65;5.38;;;;;;;8.36;51.54;97029.50;5106470;28;20044;-74
2023/03/09 02:36:42;;;;;;;6.68;5.13;;;;;;;8.40;51.31;97036.22;5105712;28;20115;-74
2023/03/09 02:39:14;;;;;;;5.78;4.40;;;;;;;8.22;51.21;96998.16;5105301;28;20040;-74
2023/03/09 02:41:41;;;;;;;7.18;4.68;;;;;;;8.47;51.03;97020.69;5104844;28;20040;-74
2023/03/09 02:44:08;;;;;;;7.43;5.10;;;;;;;8.52;51.13;97018.53;5105733;28;20039;-74
2023/03/09 02:46:36;;;;;;;8.75;4.85;;;;;;;8.54;50.94;97006.03;5088240;28;20040;-74
2023/03/09 02:49:03;;;;;;;6.75;4.93;;;;;;;7.59;50.87;96836.38;5105714;28;20048;-74
2023/03/09 02:51:30;;;;;;;9.40;4.90;;;;;;;8.08;50.69;96920.16;5105370;28;20036;-74
2023/03/09 02:53:56;;;;;;;7.43;5.80;;;;;;;8.49;50.61;96987.94;5105660;28;20036;-73
2023/03/09 02:56:23;;;;;;;5.95;4.60;;;;;;;8.63;50.70;97013.16;5105437;28;20062;-74
2023/03/09 02:58:50;;;;;;;8.85;5.50;;;;;;;8.64;50.61;96991.09;5105535;28;20043;-74
2023/03/09 03:01:18;;;;;;;6.53;5.22;;;;;;;8.64;50.64;96993.72;5105600;28;20044;-74
2023/03/09 03:03:46;;;;;;;7.35;5.18;;;;;;;7.81;50.49;96864.44;5105919;28;20039;-73
2023/03/09 03:06:13;;;;;;;6.20;5.00;;;;;;;8.45;50.64;96967.19;5105616;28;20044;-73
2023/03/09 03:08:40;;;;;;;7.75;5.03;;;;;;;8.40;50.56;96943.00;5105419;28;20044;-73
2023/03/09 03:11:06;;;;;;;7.00;4.93;;;;;;;8.65;50.50;96971.63;5104550;28;20044;-74
2023/03/09 03:13:33;;;;;;;7.10;5.53;;;;;;;8.27;50.45;96909.72;5105596;28;20053;-73
2023/03/09 03:16:00;;;;;;;6.13;5.28;;;;;;;8.65;50.60;96998.03;5105324;28;20050;-74
2023/03/09 03:18:27;;;;;;;5.75;4.72;;;;;;;8.64;50.57;96978.72;5105571;28;20036;-74
2023/03/09 03:20:56;;;;;;;6.45;4.93;;;;;;;8.23;50.34;96929.41;5105267;28;20040;-74
2023/03/09 03:23:23;;;;;;;8.27;4.80;;;;;;;8.66;50.67;96989.97;5105192;28;20040;-74
2023/03/09 03:25:50;;;;;;;5.53;4.82;;;;;;;8.47;50.50;96965.28;5104885;28;20040;-74
2023/03/09 03:28:17;;;;;;;5.60;4.97;;;;;;;8.66;50.58;96982.06;5105147;28;20055;-74
2023/03/09 03:30:50;;;;;;;10.35;5.20;;;;;;;8.65;50.26;96988.31;5105745;28;20040;-74
2023/03/09 03:33:17;;;;;;;6.38;5.18;;;;;;;8.66;50.61;96994.44;5109071;28;20040;-73
2023/03/09 03:35:44;;;;;;;8.70;5.25;;;;;;;8.46;50.73;96971.50;5108975;28;20036;-74
2023/03/09 03:38:12;;;;;;;5.43;4.65;;;;;;;8.64;50.73;97015.69;5109011;28;20080;-74
2023/03/09 03:40:39;;;;;;;6.32;4.95;;;;;;;8.63;50.70;97011.38;5108920;28;20048;-74
2023/03/09 03:43:06;;;;;;;9.05;5.63;;;;;;;8.62;50.73;97004.41;5108020;28;20036;-74
2023/03/09 03:45:33;;;;;;;8.73;5.85;;;;;;;8.60;50.91;97005.50;5108879;28;20203;-74
2023/03/09 03:48:00;;;;;;;7.20;5.85;;;;;;;8.57;50.82;96997.84;5108770;28;20239;-74
2023/03/09 03:50:26;;;;;;;6.75;5.18;;;;;;;8.55;50.95;97021.75;5107840;28;20247;-74
2023/03/09 03:52:53;;;;;;;6.90;5.50;;;;;;;8.17;50.92;96943.13;5108685;28;20338;-74
2023/03/09 03:55:21;;;;;;;9.55;5.75;;;;;;;8.51;51.05;97012.41;5108656;28;20056;-74
2023/03/09 03:57:48;;;;;;;6.80;5.68;;;;;;;8.47;51.05;97013.63;5108633;28;20300;-74
2023/03/09 04:00:17;;;;;;;7.82;5.63;;;;;;;8.46;51.15;97021.66;5108844;28;20048;-74
2023/03/09 04:02:46;;;;;;;7.75;5.68;;;;;;;-2.71;50.82;95197.34;5108493;28;20307;-74
2023/03/09 04:05:13;;;;;;;9.73;6.43;;;;;;;5.01;51.19;96454.81;5108408;28;20085;-74
2023/03/09 04:07:40;;;;;;;9.10;5.80;;;;;;;8.39;51.35;97023.16;5108123;28;20047;-74
2023/03/09 04:10:08;;;;;;;8.35;6.10;;;;;;;8.37;51.39;97020.63;5108876;28;20036;-74
2023/03/09 04:12:37;;;;;;;6.30;5.10;;;;;;;8.13;51.47;96988.38;5108600;28;20036;-74
2023/03/09 04:15:05;;;;;;;9.07;6.70;;;;;;;8.34;51.36;97020.88;5108651;28;20043;-74
2023/03/09 04:17:32;;;;;;;9.00;5.95;;;;;;;8.30;51.46;97022.09;5107396;28;20055;-74
2023/03/09 04:19:58;;;;;;;7.22;5.55;;;;;;;7.17;51.47;96836.28;5108204;28;20040;-74
2023/03/09 04:22:26;;;;;;;7.47;5.60;;;;;;;8.11;51.62;96995.56;5108374;28;20040;-74
2023/03/09 04:24:52;;;;;;;8.48;6.45;;;;;;;8.27;51.64;97025.84;5108027;28;20047;-74
2023/03/09 04:27:19;;;;;;;8.23;6.05;;;;;;;8.26;51.63;97020.69;5108525;28;20044;-74
2023/03/09 04:29:47;;;;;;;7.80;6.05;;;;;;;8.24;51.65;97017.34;5108011;28;20115;-74
2023/03/09 04:32:14;;;;;;;8.38;5.97;;;;;;;8.01;51.72;96956.75;5108348;28;20040;-74
2023/03/09 04:34:41;;;;;;;7.15;5.80;;;;;;;8.20;51.86;97006.19;5108109;28;20299;-74
2023/03/09 04:37:08;;;;;;;8.18;5.85;;;;;;;8.18;51.90;97004.66;5108310;28;20052;-74
2023/03/09 04:39:34;;;;;;;7.22;6.05;;;;;;;8.16;51.86;97002.13;5106955;28;20047;-74
2023/03/09 04:42:01;;;;;;;7.38;5.63;;;;;;;8.12;52.08;96990.16;5108089;28;20050;-74
2023/03/09 04:44:28;;;;;;;7.57;6.28;;;;;;;8.08;52.22;97004.56;5107788;28;20070;-74
2023/03/09 04:46:57;;;;;;;6.57;5.57;;;;;;;8.09;52.18;97002.78;5108074;28;20040;-74
2023/03/09 04:49:25;;;;;;;13.52;7.43;;;;;;;8.07;52.11;97026.63;5107838;28;20040;-74
2023/03/09 04:51:52;;;;;;;8.10;6.13;;;;;;;8.07;52.19;96991.50;5107536;28;20044;-74
2023/03/09 04:54:19;;;;;;;7.28;5.88;;;;;;;8.08;52.29;96993.19;5106323;28;20097;-74
2023/03/09 04:56:45;;;;;;;9.75;6.05;;;;;;;7.53;52.33;96897.50;5106638;28;20288;-74
2023/03/09 04:59:12;;;;;;;7.53;5.88;;;;;;;8.05;52.52;96999.53;5107898;28;20048;-74
2023/03/09 05:01:39;;;;;;;9.38;5.82;;;;;;;8.06;52.53;97013.56;5107422;28;20180;-74
2023/03/09 05:04:07;;;;;;;6.97;5.97;;;;;;;7.94;52.60;96978.50;5107563;28;20050;-73
2023/03/09 05:06:34;;;;;;;9.90;6.13;;;;;;;8.02;52.59;96997.16;5107868;28;20050;-74
2023/03/09 05:09:03;;;;;;;9.63;6.65;;;;;;;8.00;52.68;96993.81;5108199;28;20103;-74
2023/03/09 05:11:29;;;;;;;8.05;6.32;;;;;;;7.23;52.79;96858.66;5107751;28;20040;-74
2023/03/09 05:13:56;;;;;;;9.45;6.68;;;;;;;7.95;53.03;96980.16;5106652;28;20044;-74
2023/03/09 05:16:23;;;;;;;7.78;5.78;;;;;;;7.69;53.10;96943.59;5106484;28;20303;-74
2023/03/09 05:18:50;;;;;;;8.57;6.22;;;;;;;7.90;53.22;96971.78;5107670;28;20379;-74
2023/03/09 05:21:18;;;;;;;9.57;5.82;;;;;;;7.17;53.22;96857.34;5106319;28;20058;-74
2023/03/09 05:23:45;;;;;;;7.60;5.60;;;;;;;7.87;53.29;96970.25;5106883;28;20036;-74
2023/03/09 05:26:12;;;;;;;10.15;5.85;;;;;;;7.86;53.31;96996.75;5107080;28;20051;-74
2023/03/09 05:28:40;;;;;;;6.80;5.72;;;;;;;7.88;53.17;96997.44;5107312;28;20058;-74
2023/03/09 05:31:09;;;;;;;6.68;5.47;;;;;;;7.89;53.17;97030.78;5106943;28;20044;-74
2023/03/09 05:33:36;;;;;;;9.32;6.20;;;;;;;7.89;53.22;97020.22;5106808;28;20050;-74
2023/03/09 05:36:03;;;;;;;7.40;5.78;;;;;;;7.87;53.25;97041.44;5107476;28;20046;-74
2023/03/09 05:38:32;;;;;;;9.30;6.97;;;;;;;7.90;53.21;97050.91;5106518;28;20326;-74
2023/03/09 05:41:04;;;;;;;9.50;6.65;;;;;;;7.69;53.26;97058.75;5107342;28;20092;-74
2023/03/09 05:43:31;;;;;;;7.78;6.75;;;;;;;7.91;53.29;97097.41;5105904;28;20039;-74
2023/03/09 05:45:58;;;;;;;9.75;6.03;;;;;;;7.90;53.48;97120.31;5106849;28;20040;-74
2023/03/09 05:48:25;;;;;;;7.18;6.25;;;;;;;7.88;53.60;97118.75;5106515;28;20093;-74
2023/03/09 05:50:52;;;;;;;6.25;4.15;;;;;;;7.72;53.87;97073.47;5106317;28;20044;-74
2023/03/09 05:53:18;;;;;;;6.93;4.32;;;;;;;8.04;53.70;97100.75;5105438;28;20044;-74
2023/03/09 05:55:51;;;;;;;7.63;3.80;;;;;;;8.19;54.91;97096.88;5105652;28;20048;-74
2023/03/09 05:58:18;;;;;;;4.35;3.40;;;;;;;8.37;53.80;97088.41;5105753;28;20047;-74
2023/03/09 06:00:44;;;;;;;4.72;3.33;;;;;;;8.46;53.78;97095.59;5106470;28;20054;-74
2023/03/09 06:03:11;;;;;;;4.10;3.03;;;;;;;8.54;53.89;97064.94;5106985;28;20042;-74
2023/03/09 06:05:38;;;;;;;7.20;3.25;;;;;;;8.44;53.96;97036.78;5106388;28;20101;-75
2023/03/09 06:08:05;;;;;;;4.82;2.65;;;;;;;6.24;53.79;96669.22;5105433;28;20058;-75
2023/03/09 06:10:32;;;;;;;4.82;2.97;;;;;;;8.79;54.15;97060.25;5106764;28;20039;-72
2023/03/09 06:13:00;;;;;;;4.55;2.70;;;;;;;8.88;54.44;97054.19;5106222;28;20042;-72
2023/03/09 06:15:26;;;;;;;5.07;2.92;;;;;;;8.95;55.22;97047.41;5106111;28;20040;-73
2023/03/09 06:17:53;;;;;;;4.72;2.78;;;;;;;7.64;54.18;96811.31;5105993;28;20103;-73
2023/03/09 06:20:20;;;;;;;3.85;2.55;;;;;;;8.95;54.14;96990.13;5105897;28;20135;-72
2023/03/09 06:22:47;;;;;;;3.88;2.40;;;;;;;9.29;54.16;97030.38;5106270;28;20338;-73
2023/03/09 06:25:14;;;;;;;3.40;2.25;;;;;;;9.50;53.90;97026.88;5106448;28;20044;-75
2023/03/09 06:27:41;;;;;;;3.10;2.45;;;;;;;9.73;53.75;97020.38;5105959;28;20204;-75
2023/03/09 06:30:11;;;;;;;4.10;2.38;;;;;;;9.95;54.09;97027.25;5105125;28;20040;-75
2023/03/09 06:32:38;;;;;;;3.13;2.15;;;;;;;10.00;53.29;96987.16;5105732;28;20046;-73
2023/03/09 06:35:06;;;;;;;3.28;2.10;;;;;;;10.43;53.17;97019.34;5105826;28;20047;-73
2023/03/09 06:37:33;;;;;;;3.70;1.98;;;;;;;10.14;52.65;96944.38;5106042;28;20062;-73
2023/03/09 06:39:59;;;;;;;4.38;2.22;;;;;;;10.75;52.40;97018.19;5104822;28;20051;-73
2023/03/09 06:42:26;;;;;;;3.13;2.03;;;;;;;10.80;52.50;97026.56;5104662;28;20341;-73
2023/03/09 06:44:53;;;;;;;3.35;2.00;;;;;;;10.82;52.56;97040.50;5106080;28;20188;-73
2023/03/09 06:47:21;;;;;;;2.78;1.90;;;;;;;10.86;52.68;97039.25;5104763;28;20036;-72
2023/03/09 06:49:48;;;;;;;3.85;2.17;;;;;;;10.85;52.66;97046.38;5106237;28;20054;-73
2023/03/09 06:52:15;;;;;;;2.70;2.00;;;;;;;10.86;52.53;97061.28;5105635;28;20042;-73
2023/03/09 06:54:41;;;;;;;3.90;1.80;;;;;;;10.87;52.72;97048.88;5105468;28;20044;-73
2023/03/09 06:57:09;;;;;;;3.90;1.95;;;;;;;10.88;52.85;97048.72;5105533;28;20036;-73
2023/03/09 06:59:36;;;;;;;3.97;1.95;;;;;;;10.91;52.93;97037.00;5105420;28;20044;-73
2023/03/09 07:02:02;;;;;;;2.75;1.80;;;;;;;10.93;53.06;97015.66;5105865;28;20054;-73
2023/03/09 07:04:31;;;;;;;2.60;1.83;;;;;;;10.54;53.04;96942.38;5105327;28;20115;-73
2023/03/09 07:06:58;;;;;;;4.55;1.83;;;;;;;10.96;53.10;97015.38;5108911;28;20205;-73
2023/03/09 07:09:25;;;;;;;3.65;2.08;;;;;;;11.06;53.19;97029.44;5108662;28;20181;-73
2023/03/09 07:11:51;;;;;;;2.83;1.80;;;;;;;11.14;52.62;96957.97;5109961;28;20052;-73
2023/03/09 07:14:18;;;;;;;3.70;2.15;;;;;;;11.40;52.11;96974.88;5109443;28;20040;-73
2023/03/09 07:16:51;;;;;;;3.63;1.92;;;;;;;11.69;52.43;97043.69;5108929;28;20040;-74
2023/03/09 07:19:18;;;;;;;4.78;2.25;;;;;;;11.72;52.11;97077.06;5109711;28;20048;-74
2023/03/09 07:21:46;;;;;;;2.75;1.80;;;;;;;11.87;52.26;97060.50;5109383;28;20044;-74
2023/03/09 07:24:13;;;;;;;2.42;1.60;;;;;;;11.89;52.19;97094.84;5109844;28;20032;-74
2023/03/09 07:26:40;;;;;;;2.38;1.67;;;;;;;11.69;51.81;97072.06;5109548;28;20044;-74
2023/03/09 07:29:07;;;;;;;2.88;1.77;;;;;;;11.86;52.33;97076.56;5108513;28;20204;-74
2023/03/09 07:31:34;;;;;;;2.25;1.35;;;;;;;11.80;52.33;97080.66;5109115;28;20047;-74
2023/03/09 07:34:01;;;;;;;3.22;1.40;;;;;;;11.17;52.38;96974.44;5109667;28;20288;-74
2023/03/09 07:36:28;;;;;;;2.70;1.45;;;;;;;11.82;52.55;97083.16;5109012;28;20052;-74
2023/03/09 07:38:56;;;;;;;2.67;1.77;;;;;;;11.82;52.69;97115.00;5109302;28;20040;-74
2023/03/09 07:41:22;;;;;;;2.83;1.40;;;;;;;11.81;52.75;97111.53;5109430;28;20044;-74
2023/03/09 07:43:49;;;;;;;2.15;1.42;;;;;;;11.81;52.87;97108.88;5109321;28;20036;-74
2023/03/09 07:46:17;;;;;;;3.70;1.40;;;;;;;11.03;52.55;96982.84;5109164;28;20044;-74
2023/03/09 07:48:45;;;;;;;3.85;1.50;;;;;;;11.94;52.66;97110.34;5109380;28;20040;-74
2023/03/09 07:51:13;;;;;;;2.88;1.65;;;;;;;12.05;52.62;97111.00;5109333;28;20040;-74
2023/03/09 07:53:41;;;;;;;2.20;1.35;;;;;;;12.25;52.08;97101.16;5109033;28;20046;-74
2023/03/09 07:56:09;;;;;;;2.78;1.40;;;;;;;12.57;52.01;97123.72;5107842;28;20208;-74
2023/03/09 07:58:38;;;;;;;2.13;1.33;;;;;;;12.75;50.97;97122.75;5108931;28;20292;-74
2023/03/09 08:01:06;;;;;;;3.03;1.38;;;;;;;12.43;50.67;97042.72;5108640;28;20043;-74
2023/03/09 08:03:35;;;;;;;2.28;1.20;;;;;;;13.00;50.50;97120.28;5108720;28;20066;-74
2023/03/09 08:06:05;;;;;;;2.28;1.48;;;;;;;12.57;50.21;97060.78;5108125;28;20040;-74
2023/03/09 08:08:33;;;;;;;2.38;1.40;;;;;;;12.90;50.55;97120.38;5108481;28;20032;-74
2023/03/09 08:11:00;;;;;;;1.85;1.20;;;;;;;12.90;50.46;97128.34;5108509;28;20040;-74
2023/03/09 08:13:28;;;;;;;4.18;1.80;;;;;;;12.87;50.40;97151.75;5108321;28;20048;-74
2023/03/09 08:15:55;;;;;;;2.92;1.50;;;;;;;12.81;50.20;97126.59;5107988;28;20292;-74
2023/03/09 08:18:22;;;;;;;2.20;1.35;;;;;;;12.79;50.37;97140.06;5107961;28;20043;-74
2023/03/09 08:20:49;;;;;;;2.22;1.30;;;;;;;12.66;50.09;97118.34;5107449;28;20042;-74
2023/03/09 08:23:15;;;;;;;2.60;1.40;;;;;;;12.69;50.00;97125.16;5108541;28;20257;-74
2023/03/09 08:25:42;;;;;;;1.60;1.13;;;;;;;12.99;49.97;97143.38;5108017;28;20051;-74
2023/03/09 08:28:11;;;;;;;2.97;1.38;;;;;;;13.04;49.42;97149.06;5090508;28;20044;-74
2023/03/09 08:30:40;;;;;;;2.72;1.63;;;;;;;13.13;49.67;97147.31;5108015;28;20210;-75
2023/03/09 08:33:07;;;;;;;1.85;1.20;;;;;;;13.22;49.56;97166.84;5090446;28;20055;-75
2023/03/09 08:35:34;;;;;;;2.55;1.30;;;;;;;13.06;49.10;97141.78;5108130;28;20040;-74
2023/03/09 08:38:00;;;;;;;3.58;1.23;;;;;;;13.25;49.22;97188.66;5108017;28;20040;-74
2023/03/09 08:40:28;;;;;;;2.28;1.40;;;;;;;13.24;48.95;97186.13;5108819;28;20048;-74
2023/03/09 08:42:54;;;;;;;5.07;1.30;;;;;;;13.24;48.99;97178.16;5106894;28;20052;-74
2023/03/09 08:45:21;;;;;;;2.28;1.63;;;;;;;13.31;49.02;97181.88;5107692;28;20032;-74
2023/03/09 08:47:49;;;;;;;2.22;1.33;;;;;;;13.35;48.59;97183.25;5107384;28;20052;-74
2023/03/09 08:50:17;;;;;;;1.73;1.33;;;;;;;13.42;48.66;97179.00;5107794;28;20036;-74
2023/03/09 08:52:44;;;;;;;2.92;1.38;;;;;;;13.46;48.63;97199.81;5107545;28;20050;-75
2023/03/09 08:55:12;;;;;;;3.42;1.42;;;;;;;13.45;48.31;97187.50;5106438;28;20119;-74
2023/03/09 08:57:39;;;;;;;2.20;1.30;;;;;;;13.26;48.63;97184.16;5107803;28;20040;-74
2023/03/09 09:00:08;;;;;;;2.25;1.30;;;;;;;13.43;48.37;97192.16;5108120;28;20197;-74
2023/03/09 09:02:35;;;;;;;4.13;1.35;;;;;;;12.89;48.30;97124.03;5107464;28;20096;-74
2023/03/09 09:05:04;;;;;;;5.47;1.70;;;;;;;13.37;48.09;97224.66;5106804;28;20044;-74
2023/03/09 09:07:31;;;;;;;9.18;1.80;;;;;;;13.34;48.16;97214.31;5106330;28;20035;-74
2023/03/09 09:09:59;;;;;;;9.30;1.85;;;;;;;13.26;48.19;97240.03;5107412;28;20116;-74
2023/03/09 09:12:27;;;;;;;7.93;1.58;;;;;;;12.43;48.56;97117.09;5107667;28;20111;-74
2023/03/09 09:14:55;;;;;;;4.93;1.30;;;;;;;12.79;48.39;97203.00;5107511;28;20315;-75
2023/03/09 09:17:21;;;;;;;2.20;1.30;;;;;;;13.34;48.79;97240.09;5106817;28;20326;-74
2023/03/09 09:19:48;;;;;;;4.55;1.27;;;;;;;13.20;48.78;97184.78;5106900;28;20157;-75
2023/03/09 09:22:16;;;;;;;1.67;1.10;;;;;;;13.51;48.21;97262.38;5107168;28;20036;-75
2023/03/09 09:24:43;;;;;;;3.03;1.35;;;;;;;13.78;48.09;97239.16;5107769;28;20032;-75
2023/03/09 09:27:11;;;;;;;4.85;2.08;;;;;;;14.12;47.52;97286.31;5107002;28;20063;-75
2023/03/09 09:29:40;;;;;;;4.07;1.30;;;;;;;14.08;47.31;97237.84;5105767;28;20036;-75
2023/03/09 09:32:10;;;;;;;4.32;1.40;;;;;;;13.77;47.25;97205.53;5107100;28;20055;-75
2023/03/09 09:34:37;;;;;;;1.90;1.17;;;;;;;14.52;47.27;97255.53;5106866;28;20044;-75
2023/03/09 09:37:06;;;;;;;4.95;1.70;;;;;;;14.68;47.08;97258.34;5107438;28;20084;-75
2023/03/09 09:39:34;;;;;;;2.08;1.17;;;;;;;14.39;46.86;97208.84;5107064;28;20040;-75
2023/03/09 09:42:04;;;;;;;3.53;1.42;;;;;;;14.88;46.39;97299.75;5106950;28;20284;-75
2023/03/09 09:44:35;;;;;;;3.65;1.50;;;;;;;14.98;46.46;97278.28;5107012;28;20035;-75
2023/03/09 09:47:06;;;;;;;5.22;1.45;;;;;;;14.74;46.17;97244.38;5106839;28;20066;-75
2023/03/09 09:49:41;;;;;;;1.88;1.15;;;;;;;15.00;46.52;97297.63;5106881;28;20051;-75
2023/03/09 09:52:33;;;;;;;2.40;1.17;;;;;;;14.97;46.24;97288.09;5106524;28;20097;-75
2023/03/09 09:55:14;;;;;;;2.67;1.20;;;;;;;15.01;46.64;97277.94;5106470;28;20254;-75
2023/03/09 09:57:42;;;;;;;3.25;1.58;;;;;;;15.02;46.80;97285.78;5105854;28;20247;-75
2023/03/09 10:00:15;;;;;;;3.80;1.50;;;;;;;15.08;46.39;97317.16;5105583;28;20365;-75
2023/03/09 10:03:01;;;;;;;3.88;1.35;;;;;;;15.05;46.34;97314.81;5106918;28;20250;-75
2023/03/09 10:05:35;;;;;;;4.18;1.30;;;;;;;14.94;46.96;97378.28;5089422;28;20032;-75
2023/03/09 10:08:17;;;;;;;2.38;1.30;;;;;;;14.93;47.05;97320.59;5105603;28;20051;-75
2023/03/09 10:10:46;;;;;;;1.98;1.15;;;;;;;14.53;47.13;97273.22;5105508;28;20359;-75
2023/03/09 10:13:29;;;;;;;1.95;1.20;;;;;;;14.78;47.29;97327.53;5105547;28;20208;-75
2023/03/09 10:15:59;;;;;;;2.30;1.20;;;;;;;14.72;48.03;97337.84;5105833;28;20043;-73
2023/03/09 10:18:33;;;;;;;2.38;1.33;;;;;;;14.27;47.53;97252.75;5105397;28;20177;-75
2023/03/09 10:21:00;;;;;;;;;;;;;;;14.61;47.22;97359.44;5106320;28;20082;-75
2023/03/09 10:23:31;;;;;;;2.08;1.35;;;;;;;13.70;47.78;97206.31;5105229;28;19986;-76
2023/03/09 10:26:10;;;;;;;2.25;1.48;;;;;;;14.59;47.87;97344.56;5106074;28;20099;-75
2023/03/09 10:28:43;;;;;;;2.88;1.30;;;;;;;14.47;47.43;97377.78;5105116;28;20052;-75
2023/03/09 10:31:17;;;;;;;2.53;1.23;;;;;;;14.33;47.91;97361.38;5105921;28;20040;-75
2023/03/09 10:33:46;;;;;;;4.82;2.92;;;;;;;14.27;48.80;97372.66;5105797;28;20044;-75
2023/03/09 10:36:19;;;;;;;2.95;1.75;;;;;;;14.04;48.18;97348.34;5105646;28;20318;-75
2023/03/09 10:38:46;;;;;;;2.33;1.40;;;;;;;14.18;48.89;97388.75;5105869;28;20345;-75
2023/03/09 10:41:18;;;;;;;2.15;1.40;;;;;;;13.59;48.32;97294.41;5106128;28;20036;-74
2023/03/09 10:43:46;;;;;;;2.78;1.40;;;;;;;14.15;48.29;97395.22;5105133;28;20036;-75
2023/03/09 10:46:14;;;;;;;4.03;1.80;;;;;;;14.11;48.67;97389.34;5105719;28;20032;-75
2023/03/09 10:48:42;;;;;;;4.03;2.05;;;;;;;14.08;48.78;97388.81;5105595;28;20054;-75
2023/03/09 10:51:24;;;;;;;4.40;1.83;;;;;;;13.57;48.53;97305.19;5105687;28;20329;-75
2023/03/09 10:53:54;;;;;;;3.20;1.52;;;;;;;13.60;48.72;97330.66;5105915;28;20187;-75
2023/03/09 10:56:24;;;;;;;2.53;1.50;;;;;;;13.78;48.44;97390.06;5105290;28;20074;-75
2023/03/09 10:59:13;;;;;;;4.43;1.50;;;;;;;10.58;48.10;96847.59;5105473;28;20064;-75
2023/03/09 11:01:41;;;;;;;3.72;1.48;;;;;;;14.06;48.57;97415.63;5104419;28;20115;-75
2023/03/09 11:04:37;;;;;;;3.75;1.65;;;;;;;13.87;47.66;97343.03;5105716;28;20054;-76
2023/03/09 11:07:06;;;;;;;2.97;1.60;;;;;;;14.51;48.08;97425.28;5105473;28;20044;-75
2023/03/09 11:09:36;;;;;;;7.40;1.83;;;;;;;14.69;47.15;97438.66;5105740;28;20334;-75
2023/03/09 11:12:18;;;;;;;2.75;1.50;;;;;;;14.78;46.47;97424.38;5105378;28;20036;-75
2023/03/09 11:14:48;;;;;;;2.88;1.48;;;;;;;14.92;46.94;97438.94;5104569;28;20066;-75
2023/03/09 11:17:33;;;;;;;4.15;1.70;;;;;;;15.07;45.36;97446.19;5105469;28;20036;-75
2023/03/09 11:20:30;;;;;;;4.93;1.92;;;;;;;15.16;44.30;97435.56;5104439;28;20058;-76
2023/03/09 11:23:17;;;;;;;2.45;1.48;;;;;;;15.13;43.58;97411.88;5105547;28;20243;-75
2023/03/09 11:26:11;;;;;;;4.88;2.53;;;;;;;15.22;43.99;97409.09;5104501;28;20119;-76
2023/03/09 11:28:59;;;;;;;3.03;1.77;;;;;;;15.19;44.19;97417.41;5105194;28;20284;-75
2023/03/09 11:31:32;;;;;;;3.85;1.45;;;;;;;15.22;44.94;97442.94;5104283;28;20071;-75
2023/03/09 11:33:59;;;;;;;3.72;1.70;;;;;;;15.27;44.53;97421.94;5105259;28;20044;-75
2023/03/09 11:36:33;;;;;;;4.93;1.80;;;;;;;14.35;43.27;97338.06;5105222;28;20036;-76
2023/03/09 11:39:03;;;;;;;3.37;1.70;;;;;;;15.23;43.88;97437.44;5105574;28;20035;-76
2023/03/09 11:41:34;;;;;;;3.30;1.60;;;;;;;15.21;43.20;97462.63;5104239;28;20097;-75
2023/03/09 11:44:08;;;;;;;3.00;1.80;;;;;;;15.19;43.08;97451.25;5104992;28;20036;-75
2023/03/09 11:46:36;;;;;;;5.10;2.25;;;;;;;14.62;43.47;97361.13;5104425;28;20118;-76
2023/03/09 11:49:08;;;;;;;3.75;1.63;;;;;;;15.17;42.74;97445.25;5105509;28;20051;-75